• Join FlightAware (Why Join?)
  • Login
  • US Flag 
07:04PM EDT


 

Airport Tracker/Info


-or-


 

Live Flight TrackerFlight Track Log ✈ SAS944 ✈ 20-Jul-2013 ✈ KORD - EKCH / CPH

Flight Track Log - Related Links

Times and Time Zones

All times are in EDT time to prevent confusion due to time zone crossing. See the SAS944 flight status page for this flight to view local times or setup timezone preferences in your user account.

Time Position Orientation Groundspeed Altitude Reporting Facility
EDT Latitude Longitude Course Direction KTS MPH feet Rate Location/Type
11:37PM 41.9780 -87.9160 272° West 26 30  Level FlightAware
11:37PM 41.9790 -87.9180 304° West 25 29 60 Level FlightAware
11:38PM 41.9800 -87.9190 323° Northwest 31 36 60 Level FlightAware
11:38PM 41.9800 -87.9200 270° West 33 38 60 Level FlightAware
11:38PM 41.9820 -87.9210 340° North 18 21 60 Level FlightAware
11:39PM 41.9840 -87.9230 323° Northwest 21 24 60 Level FlightAware
11:40PM 41.9870 -87.9200 37° Northeast 16 18 60 Level FlightAware
11:41PM 41.9870 -87.9180 90° East 16 18 60 Level FlightAware
11:41PM 41.9870 -87.9150 90° East 28 32 60 Level FlightAware
11:42PM 41.9880 -87.9140 37° Northeast 34 39 60 Level FlightAware
11:42PM 41.9890 -87.9130 37° Northeast 31 36 60 Level FlightAware
11:42PM 41.9900 -87.9110 56° Northeast 15 17 60 Level FlightAware
11:43PM 41.9920 -87.9090 37° Northeast 16 18 60 Level FlightAware
11:43PM 41.9930 -87.9080 37° Northeast 23 26 60 Level FlightAware
11:44PM 41.9940 -87.9080 360° North 26 30 60 Level FlightAware
11:45PM 41.9950 -87.9100 304° West 33 38 60 Level FlightAware
11:45PM 41.9980 -87.9130 323° Northwest 29 33 60 Level FlightAware
11:47PM 41.9970 -87.9110 124° Southeast 16 18 60 Level FlightAware
11:48PM 41.9970 -87.9120 270° West 60 Level FlightAware
11:51PM 41.9980 -87.9120 360° North 17 20 120 Level FlightAware
11:53PM 41.9990 -87.9130 323° Northwest 2 2 120 Level FlightAware
11:54PM 41.9990 -87.9140 270° West 12 14 180 Level FlightAware
11:56PM 42.0010 -87.9160 323° Northwest 20 23 180 Level FlightAware
12:00AM 41.9950 -87.9070 132° Southeast 115 132 300 Level FlightAware
12:00AM 41.9830 -87.8940 141° Southeast 175 201 1,680 Level FlightAware
12:01AM 41.9630 -87.8700 138° Southeast 169 194 1,600 2,580 Climbing FlightAware
12:01AM 41.9610 -87.8590 104° East 168 193 1,800 900 Climbing FlightAware
12:02AM 41.9760 -87.8300 55° Northeast 188 216 2,300 1,200 Climbing FlightAware
12:02AM 41.9960 -87.8130 32° Northeast 178 205 3,100 1,560 Climbing FlightAware
12:02AM 42.0150 -87.8110 North 173 199 3,700 1,440 Climbing FlightAware
12:03AM 42.0300 -87.8110 360° North 174 200 4,100 780 Climbing FlightAware
12:03AM 42.0530 -87.8110 360° North 195 224 4,300 540 Climbing FlightAware
12:03AM 42.0670 -87.8120 357° North 207 238 4,500 660 Climbing FlightAware
12:04AM 42.0950 -87.8130 358° North 236 272 4,800 960 Climbing FlightAware
12:04AM 42.1290 -87.8150 358° North 257 296 5,400 1,380 Climbing FlightAware
12:05AM 42.1570 -87.8160 358° North 268 308 6,000 1,860 Climbing FlightAware
12:05AM 42.1880 -87.8170 359° North 272 313 6,900 1,980 Climbing FlightAware
12:06AM 42.2240 -87.8170 360° North 278 320 7,800 1,920 Climbing FlightAware
12:06AM 42.2370 -87.8180 14° North 277 319 8,200 1,980 Climbing FlightAware
12:06AM 42.2760 -87.8180 360° North 287 330 9,100 1,980 Climbing FlightAware
12:07AM 42.3110 -87.8180 360° North 290 334 10,000 1,320 Climbing FlightAware
12:07AM 42.3560 -87.8180 360° North 314 361 10,500 1,020 Climbing FlightAware
12:08AM 42.4230 -87.8200 359° North 344 396 11,300 1,560 Climbing FlightAware
12:09AM 42.4950 -87.8220 359° North 353 406 12,700 1,800 Climbing FlightAware
12:09AM 42.5470 -87.8110 North 369 425 13,600 1,740 Climbing FlightAware
12:10AM 42.6080 -87.7710 26° Northeast 373 429 14,800 1,620 Climbing FlightAware
12:11AM 42.6660 -87.7350 25° Northeast 384 442 15,700 1,380 Climbing FlightAware
12:13AM 42.8850 -87.5710 29° Northeast 416 479 19,300 1,500 Climbing FlightAware
12:14AM 42.9810 -87.4650 39° Northeast 426 490 20,800 1,680 Climbing FlightAware
12:15AM 43.0470 -87.3940 38° Northeast 431 496 21,900 1,320 Climbing FlightAware
12:15AM 43.1060 -87.3290 39° Northeast 438 504 22,600 1,020 Climbing FlightAware
12:16AM 43.1730 -87.2550 39° Northeast 445 512 23,300 1,020 Climbing FlightAware
12:17AM 43.2450 -87.1750 39° Northeast 453 521 24,100 1,140 Climbing FlightAware
12:17AM 43.3170 -87.0960 39° Northeast 457 526 25,000 1,080 Climbing FlightAware
12:18AM 43.3710 -87.0360 39° Northeast 461 531 25,500 960 Climbing FlightAware
12:19AM 43.4360 -86.9630 39° Northeast 465 535 26,200 960 Climbing FlightAware
12:19AM 43.5140 -86.8760 39° Northeast 470 541 26,900 840 Climbing FlightAware
12:20AM 43.6000 -86.7800 39° Northeast 477 549 27,600 780 Climbing FlightAware
12:21AM 43.6660 -86.6710 50° Northeast 502 578 28,200 660 Climbing FlightAware
12:22AM 43.7160 -86.5530 60° Northeast 510 587 28,600 540 Climbing FlightAware
12:22AM 43.7280 -86.5240 60° Northeast 512 589 28,700 660 Climbing FlightAware
12:23AM 43.8050 -86.3400 60° Northeast 520 598 29,500 720 Climbing FlightAware
12:24AM 43.8580 -86.2140 60° Northeast 525 604 30,000 660 Climbing FlightAware
12:24AM 43.8990 -86.1140 60° Northeast 529 609 30,400 600 Climbing FlightAware
12:25AM 43.9600 -85.9670 60° Northeast 535 616 30,900 600 Climbing FlightAware
12:26AM 44.0070 -85.8530 60° Northeast 536 617 31,400 900 Climbing FlightAware
12:26AM 44.0580 -85.7270 61° Northeast 531 611 32,100 1,020 Climbing FlightAware
12:27AM 44.1110 -85.5990 60° Northeast 529 609 32,800 600 Climbing FlightAware
12:28AM 44.1590 -85.4790 61° Northeast 537 618 33,000 120 Climbing FlightAware
12:28AM 44.2040 -85.3680 60° Northeast 547 629 33,000  Level FlightAware
12:29AM 44.2620 -85.2240 61° Northeast 560 644 33,000  Level FlightAware
12:30AM 44.3070 -85.1130 60° Northeast 563 648 33,000  Level FlightAware
12:30AM 44.3570 -84.9870 61° Northeast 564 649 33,000  Level FlightAware
12:31AM 44.4070 -84.8620 61° Northeast 565 650 33,000  Level FlightAware
12:32AM 44.4590 -84.7310 61° Northeast 566 651 33,000  Level FlightAware
12:32AM 44.5150 -84.5880 61° Northeast 567 652 33,000  Level FlightAware
12:33AM 44.5660 -84.4600 61° Northeast 567 652 33,000  Level FlightAware
12:34AM 44.6210 -84.3180 61° Northeast 569 655 33,000  Level FlightAware
12:35AM 44.6770 -84.1740 61° Northeast 571 657 33,000  Level FlightAware
12:35AM 44.7280 -84.0430 61° Northeast 570 656 33,000  Level FlightAware
12:36AM 44.7770 -83.9170 61° Northeast 570 656 33,000  Level FlightAware
12:37AM 44.8330 -83.7690 62° Northeast 570 656 33,000  Level FlightAware
12:37AM 44.8880 -83.6260 61° Northeast 569 655 33,000  Level FlightAware
12:38AM 44.9380 -83.4940 62° Northeast 572 658 33,000  Level FlightAware
12:39AM 44.9870 -83.3640 62° Northeast 575 662 33,000  Level FlightAware
12:39AM 45.0420 -83.2170 62° Northeast 575 662 33,000  Level FlightAware
12:40AM 45.0920 -83.0830 62° Northeast 576 663 33,000  Level FlightAware
12:41AM 45.1470 -82.9370 62° Northeast 576 663 33,000  Level FlightAware
12:42AM 45.1980 -82.7990 62° Northeast 575 662 33,000  Level FlightAware
12:42AM 45.2450 -82.6710 62° Northeast 573 659 33,000 180 Level FlightAware
12:43AM 45.2990 -82.5220 63° Northeast 572 658 33,300 360 Climbing FlightAware
12:44AM 45.3540 -82.3730 62° Northeast 574 661 33,600 480 Climbing FlightAware
12:44AM 45.4030 -82.2370 63° Northeast 575 662 34,000 660 Climbing FlightAware
12:45AM 45.4560 -82.0890 63° Northeast 569 655 34,600 720 Climbing FlightAware
12:46AM 45.4990 -81.9690 63° Northeast 566 651 35,000 240 Climbing FlightAware
12:47AM 45.5560 -81.8110 63° Northeast 566 651 35,000  Level FlightAware
12:47AM 45.6030 -81.6770 63° Northeast 565 650 35,000  Level FlightAware
12:48AM 45.6500 -81.5450 63° Northeast 566 651 35,000  Level FlightAware
12:49AM 45.7020 -81.3960 63° Northeast 567 652 35,000  Level FlightAware
12:49AM 45.7440 -81.2780 63° Northeast 568 654 35,000  Level FlightAware
12:50AM 45.7930 -81.1360 64° Northeast 570 656 35,000  Level FlightAware
12:51AM 45.8400 -80.9990 64° Northeast 571 657 35,000  Level FlightAware
12:51AM 45.8810 -80.8800 64° Northeast 573 659 35,000  Level FlightAware
12:52AM 45.9330 -80.7300 63° Northeast 573 659 35,000  Level FlightAware
12:53AM 45.9800 -80.5920 64° Northeast 574 661 35,000  Level FlightAware
12:53AM 46.0210 -80.4690 64° Northeast 575 662 35,000  Level FlightAware
12:54AM 46.0680 -80.3290 64° Northeast 577 664 35,000  Level FlightAware
12:54AM 46.1150 -80.1920 64° Northeast 576 663 35,000  Level FlightAware
12:55AM 46.1690 -80.0280 65° Northeast 574 661 35,000  Level FlightAware
12:56AM 46.2130 -79.8960 64° Northeast 575 662 35,000  Level FlightAware
12:57AM 46.2640 -79.7430 64° Northeast 577 664 35,000  Level FlightAware
12:57AM 46.3100 -79.6030 65° Northeast 576 663 35,000  Level FlightAware
12:58AM 46.3500 -79.4780 65° Northeast 575 662 35,000  Level FlightAware
12:59AM 46.3910 -79.3340 68° East 579 666 35,000  Level FlightAware
12:59AM 46.4310 -79.1880 68° East 578 665 35,000  Level FlightAware
01:00AM 46.4680 -79.0530 68° East 578 665 35,000  Level FlightAware
01:01AM 46.5090 -78.9000 69° East 578 665 35,000  Level FlightAware
01:01AM 46.5490 -78.7500 69° East 575 662 35,000  Level FlightAware
01:02AM 46.5870 -78.6070 69° East 571 657 35,000  Level FlightAware
01:03AM 46.6300 -78.4420 69° East 569 655 35,000  Level FlightAware
01:03AM 46.6680 -78.2980 69° East 567 652 35,000  Level FlightAware
01:04AM 46.7080 -78.1430 69° East 566 651 35,000  Level FlightAware
01:05AM 46.7420 -78.0120 69° East 567 652 35,000  Level FlightAware
01:05AM 46.7800 -77.8690 69° East 565 650 35,000  Level FlightAware
01:06AM 46.8320 -77.7430 59° Northeast 559 643 35,000  Level FlightAware
01:07AM 46.8910 -77.6070 58° Northeast 562 647 35,000  Level FlightAware
01:07AM 46.9520 -77.4680 57° Northeast 563 648 35,000  Level FlightAware
01:08AM 47.0080 -77.3380 58° Northeast 563 648 35,000  Level FlightAware
01:09AM 47.0690 -77.1980 57° Northeast 564 649 35,000  Level FlightAware
01:10AM 47.1250 -77.0690 57° Northeast 563 648 35,000  Level FlightAware
01:10AM 47.1770 -76.9470 58° Northeast 562 647 35,000  Level FlightAware
01:13AM 47.3740 -76.4950 57° Northeast 562 647 35,000  Level FlightAware
01:14AM 47.4330 -76.3610 57° Northeast 562 647 35,000  Level FlightAware
01:14AM 47.4770 -76.2620 57° Northeast 562 647 35,000  Level FlightAware
01:15AM 47.5340 -76.1300 57° Northeast 562 647 35,000  Level FlightAware
01:16AM 47.5790 -76.0290 57° Northeast 562 647 35,000  Level FlightAware
01:16AM 47.6340 -75.9020 57° Northeast 562 647 35,000  Level FlightAware
01:17AM 47.6780 -75.8030 57° Northeast 562 647 35,000  Level FlightAware
01:18AM 47.7370 -75.6680 57° Northeast 562 647 35,000  Level FlightAware
01:18AM 47.7800 -75.5690 57° Northeast 562 647 35,000  Level FlightAware
01:19AM 47.8380 -75.4370 57° Northeast 562 647 35,000  Level FlightAware
01:20AM 47.8810 -75.3370 57° Northeast 562 647 35,000  Level FlightAware
01:22AM 48.1390 -74.6000 62° Northeast 550 633 35,000  Level FlightAware
01:23AM 48.2160 -74.4030 60° Northeast 550 633 35,000  Level FlightAware
01:24AM 48.2690 -74.2660 60° Northeast 553 636 35,000  Level FlightAware
01:25AM 48.3350 -74.0940 60° Northeast 553 636 35,000  Level FlightAware
01:25AM 48.3770 -73.9860 60° Northeast 553 636 35,000  Level FlightAware
01:26AM 48.4580 -73.7750 60° Northeast 553 636 35,000  Level FlightAware
01:27AM 48.5070 -73.6440 61° Northeast 549 632 35,000  Level FlightAware
01:28AM 48.5490 -73.5340 60° Northeast 549 632 35,000  Level FlightAware
01:28AM 48.5880 -73.4330 60° Northeast 549 632 35,000  Level FlightAware
01:29AM 48.6400 -73.2970 60° Northeast 549 632 35,000  Level FlightAware
01:30AM 48.6790 -73.1950 60° Northeast 549 632 35,000  Level FlightAware
01:30AM 48.7180 -73.0930 60° Northeast 549 632 35,000  Level FlightAware
01:31AM 48.8220 -72.8020 61° Northeast 551 634 35,000  Level FlightAware
01:32AM 48.8610 -72.6990 60° Northeast 551 634 35,000  Level FlightAware
01:33AM 48.9270 -72.5100 62° Northeast 557 641 35,000  Level FlightAware
01:34AM 48.9970 -72.3160 61° Northeast 558 642 35,000  Level FlightAware
01:34AM 49.0510 -72.1680 61° Northeast 559 643 35,000  Level FlightAware
01:35AM 49.0930 -72.0490 62° Northeast 560 644 35,000  Level FlightAware
01:36AM 49.1410 -71.9130 62° Northeast 560 644 35,000  Level FlightAware
01:36AM 49.1980 -71.7530 61° Northeast 559 643 35,000  Level FlightAware
01:37AM 49.2400 -71.6320 62° Northeast 561 646 35,000  Level FlightAware
01:38AM 49.2830 -71.5120 61° Northeast 561 646 35,000  Level FlightAware
01:38AM 49.3340 -71.3700 61° Northeast 561 646 35,000  Level FlightAware
01:39AM 49.3730 -71.2630 61° Northeast 561 646 35,000  Level FlightAware
01:40AM 49.4370 -71.0860 61° Northeast 561 646 35,000  Level FlightAware
01:41AM 49.4750 -70.9790 61° Northeast 561 646 35,000  Level FlightAware
01:41AM 49.5280 -70.8330 61° Northeast 561 646 35,000  Level FlightAware
01:42AM 49.5660 -70.7260 61° Northeast 561 646 35,000  Level FlightAware
01:43AM 49.6050 -70.6190 61° Northeast 561 646 35,000  Level FlightAware
01:43AM 49.6560 -70.4760 61° Northeast 561 646 35,000  Level FlightAware
01:44AM 49.6950 -70.3680 61° Northeast 561 646 35,000  Level FlightAware
01:45AM 49.7460 -70.2250 61° Northeast 561 646 35,000  Level FlightAware
01:45AM 49.7840 -70.1180 61° Northeast 561 646 35,000  Level FlightAware
01:46AM 49.8360 -69.9740 61° Northeast 561 646 35,000  Level FlightAware
01:47AM 49.8750 -69.8630 61° Northeast 561 646 35,000  Level FlightAware
01:48AM 49.9833 -69.3667 61° Northeast 560 644 35,000  Level Moncton Center
01:49AM 50.0500 -69.1667 63° Northeast 560 644 35,000  Level Moncton Center
01:50AM 50.1167 -68.9500 64° Northeast 560 644 35,000  Level Moncton Center
01:51AM 50.2000 -68.7167 61° Northeast 560 644 35,000  Level Moncton Center
01:52AM 50.2500 -68.5167 69° East 560 644 35,000  Level Moncton Center
01:53AM 50.3333 -68.2833 61° Northeast 560 644 35,000  Level Moncton Center
01:54AM 50.3833 -68.0667 70° East 560 644 35,000  Level Moncton Center
01:55AM 50.4667 -67.8500 59° Northeast 560 644 35,000  Level Moncton Center
01:56AM 50.5333 -67.6167 66° East 560 644 35,000  Level Moncton Center
01:57AM 50.6000 -67.3833 66° East 560 644 35,000  Level Moncton Center
01:58AM 50.6667 -67.1667 64° Northeast 560 644 35,000  Level Moncton Center
01:59AM 50.7333 -66.9333 66° East 560 644 35,000  Level Moncton Center
02:00AM 50.7833 -66.7333 68° East 560 644 35,000  Level Moncton Center
02:01AM 50.8667 -66.5000 60° Northeast 560 644 35,000  Level Moncton Center
02:02AM 50.9167 -66.2500 72° East 560 644 35,000  Level Moncton Center
02:03AM 50.9833 -66.0500 62° Northeast 560 644 35,000  Level Moncton Center
02:04AM 51.0500 -65.8000 67° East 560 644 35,000  Level Moncton Center
02:05AM 51.1167 -65.5667 65° Northeast 560 644 35,000  Level Moncton Center
02:06AM 51.1833 -65.3500 64° Northeast 550 633 35,000  Level Moncton Center
02:07AM 51.2333 -65.1167 71° East 560 644 35,000  Level Moncton Center
02:08AM 51.3000 -64.9000 64° Northeast 560 644 35,000  Level Moncton Center
02:09AM 51.3667 -64.6667 65° Northeast 570 656 35,000  Level Moncton Center
02:10AM 51.4167 -64.4167 72° East 570 656 35,000  Level Moncton Center
02:11AM 51.4833 -64.1833 65° Northeast 570 656 35,000  Level Moncton Center
02:12AM 51.5500 -63.9667 64° Northeast 580 667 35,000  Level Moncton Center
02:13AM 51.6167 -63.7000 68° East 580 667 35,000  Level Moncton Center
02:14AM 51.6667 -63.4833 70° East 570 656 35,000  Level Moncton Center
02:15AM 51.7333 -63.2333 67° East 570 656 35,000  Level Moncton Center
02:16AM 51.7833 -62.9833 72° East 570 656 35,000  Level Moncton Center
02:17AM 51.8333 -62.7500 71° East 570 656 35,000  Level Moncton Center
02:18AM 51.8833 -62.5333 69° East 570 656 35,000  Level Moncton Center
02:19AM 51.9500 -62.2833 67° East 570 656 35,000  Level Moncton Center
02:20AM 52.0167 -62.0333 66° East 570 656 35,000  Level Moncton Center
02:21AM 52.0500 -61.7833 78° East 580 667 35,000  Level Moncton Center
02:22AM 52.1167 -61.5333 66° East 580 667 35,000  Level Moncton Center
02:23AM 52.2000 -61.3167 58° Northeast 580 667 35,000  Level Moncton Center
02:24AM 52.2500 -61.0667 72° East 580 667 35,000  Level Moncton Center
02:25AM 52.3333 -60.8167 61° Northeast 580 667 35,000  Level Moncton Center
02:26AM 52.4000 -60.5833 65° Northeast 590 679 35,000  Level Moncton Center
02:27AM 52.4667 -60.3333 66° East 580 667 35,000  Level Moncton Center
02:28AM 52.5500 -60.1000 60° Northeast 580 667 35,000  Level Moncton Center
02:29AM 52.6000 -59.8833 69° East 580 667 35,000  Level Moncton Center
02:30AM 52.6833 -59.6167 63° Northeast 580 667 35,000  Level Moncton Center
02:31AM 52.7500 -59.3667 66° East 580 667 35,000  Level Moncton Center
02:32AM 52.8000 -59.1333 70° East 580 667 35,000  Level Moncton Center
02:33AM 52.8667 -58.9167 63° Northeast 580 667 35,000  Level Moncton Center
02:34AM 52.9333 -58.6500 67° East 580 667 35,000  Level Moncton Center
02:35AM 53.0167 -58.4167 59° Northeast 580 667 35,000  Level Moncton Center
02:36AM 53.0667 -58.1667 72° East 570 656 35,000  Level Moncton Center
02:37AM 53.1333 -57.9333 64° Northeast 570 656 35,000  Level Moncton Center
02:38AM 53.1833 -57.6667 73° East 570 656 35,000  Level Moncton Center
02:39AM 53.2667 -57.4333 59° Northeast 570 656 35,000  Level Moncton Center
02:40AM 53.3167 -57.2000 70° East 570 656 35,000  Level Moncton Center
02:41AM 53.3833 -56.9667 64° Northeast 570 656 35,000  Level Moncton Center
02:42AM 53.4333 -56.7333 70° East 570 656 35,000  Level Moncton Center
02:43AM 53.5000 -56.4667 67° East 570 656 35,000  Level Moncton Center
02:44AM 53.5500 -56.2333 70° East 570 656 35,100 540 Climbing Moncton Center
02:45AM 53.6167 -55.9667 67° East 560 644 36,100 840 Climbing Moncton Center
02:46AM 53.6667 -55.7500 69° East 550 633 36,800 420 Climbing Moncton Center
02:47AM 53.7333 -55.4833 67° East 550 633 37,000 60 Climbing Moncton Center
02:48AM 53.7833 -55.2500 70° East 560 644 37,000  Level Moncton Center
02:49AM 53.8333 -55.0000 71° East 560 644 37,000  Level Moncton Center
02:50AM 53.9000 -54.7667 64° Northeast 560 644 37,000  Level Moncton Center
02:51AM 53.9667 -54.5167 66° East 560 644 37,000  Level Moncton Center
02:52AM 54.0333 -54.2833 64° Northeast 570 656 37,000  Level Moncton Center
02:53AM 54.0833 -54.0333 71° East 570 656 37,000  Level Moncton Center
02:55AM 54.1921 -53.5927 67° East  Level FlightAware Approximate
03:02AM 54.5661 -52.0058 67° East  Level FlightAware Approximate
03:03AM 54.6178 -51.7767 69° East  Level FlightAware Approximate
03:04AM 54.6690 -51.5471 69° East  Level FlightAware Approximate
03:05AM 54.7199 -51.3169 69° East  Level FlightAware Approximate
03:06AM 54.7703 -51.0861 69° East  Level FlightAware Approximate
03:07AM 54.8203 -50.8547 69° East  Level FlightAware Approximate
03:08AM 54.8698 -50.6228 70° East  Level FlightAware Approximate
03:09AM 54.9189 -50.3903 70° East  Level FlightAware Approximate
03:10AM 54.9675 -50.1572 70° East  Level FlightAware Approximate
03:11AM 55.0252 -49.9314 57° Northeast  Level FlightAware Approximate
03:12AM 55.1017 -49.7216 57° Northeast  Level FlightAware Approximate
03:13AM 55.1778 -49.5110 58° Northeast  Level FlightAware Approximate
03:14AM 55.2536 -49.2996 58° Northeast  Level FlightAware Approximate
03:15AM 55.3290 -49.0874 58° Northeast  Level FlightAware Approximate
03:16AM 55.4041 -48.8744 58° Northeast  Level FlightAware Approximate
03:17AM 55.4788 -48.6606 58° Northeast  Level FlightAware Approximate
03:18AM 55.5531 -48.4460 58° Northeast  Level FlightAware Approximate
03:19AM 55.6270 -48.2306 59° Northeast  Level FlightAware Approximate
03:20AM 55.7006 -48.0143 59° Northeast  Level FlightAware Approximate
03:21AM 55.7737 -47.7973 59° Northeast  Level FlightAware Approximate
03:22AM 55.8465 -47.5794 59° Northeast  Level FlightAware Approximate
03:23AM 55.9189 -47.3607 59° Northeast  Level FlightAware Approximate
03:24AM 55.9909 -47.1412 60° Northeast  Level FlightAware Approximate
03:25AM 56.0626 -46.9209 60° Northeast  Level FlightAware Approximate
03:26AM 56.1338 -46.6998 60° Northeast  Level FlightAware Approximate
03:27AM 56.2046 -46.4778 60° Northeast  Level FlightAware Approximate
03:28AM 56.2751 -46.2551 60° Northeast  Level FlightAware Approximate
03:29AM 56.3451 -46.0315 60° Northeast  Level FlightAware Approximate
03:30AM 56.4147 -45.8071 61° Northeast  Level FlightAware Approximate
03:31AM 56.4839 -45.5818 61° Northeast  Level FlightAware Approximate
03:32AM 56.5527 -45.3558 61° Northeast  Level FlightAware Approximate
03:33AM 56.6211 -45.1289 61° Northeast  Level FlightAware Approximate
03:34AM 56.6891 -44.9012 61° Northeast  Level FlightAware Approximate
03:35AM 56.7567 -44.6727 62° Northeast  Level FlightAware Approximate
03:36AM 56.8238 -44.4434 62° Northeast  Level FlightAware Approximate
03:37AM 56.8906 -44.2132 62° Northeast  Level FlightAware Approximate
03:38AM 56.9569 -43.9822 62° Northeast  Level FlightAware Approximate
03:39AM 57.0228 -43.7504 62° Northeast  Level FlightAware Approximate
03:40AM 57.0882 -43.5178 63° Northeast  Level FlightAware Approximate
03:41AM 57.1532 -43.2844 63° Northeast  Level FlightAware Approximate
03:42AM 57.2178 -43.0501 63° Northeast  Level FlightAware Approximate
03:43AM 57.2819 -42.8150 63° Northeast  Level FlightAware Approximate
03:44AM 57.3456 -42.5791 63° Northeast  Level FlightAware Approximate
03:45AM 57.4089 -42.3424 64° Northeast  Level FlightAware Approximate
03:46AM 57.4717 -42.1049 64° Northeast  Level FlightAware Approximate
03:47AM 57.5341 -41.8666 64° Northeast  Level FlightAware Approximate
03:48AM 57.5960 -41.6274 64° Northeast  Level FlightAware Approximate
03:49AM 57.6575 -41.3874 64° Northeast  Level FlightAware Approximate
03:50AM 57.7185 -41.1466 65° Northeast  Level FlightAware Approximate
03:51AM 57.7790 -40.9050 65° Northeast  Level FlightAware Approximate
03:52AM 57.8391 -40.6627 65° Northeast  Level FlightAware Approximate
03:53AM 57.8987 -40.4194 65° Northeast  Level FlightAware Approximate
03:54AM 57.9579 -40.1754 65° Northeast  Level FlightAware Approximate
03:55AM 58.0173 -39.9312 65° Northeast  Level FlightAware Approximate
03:56AM 58.0780 -39.6878 65° Northeast  Level FlightAware Approximate
03:57AM 58.1383 -39.4435 65° Northeast  Level FlightAware Approximate
03:58AM 58.1981 -39.1984 65° Northeast  Level FlightAware Approximate
03:59AM 58.2574 -38.9525 65° Northeast  Level FlightAware Approximate
04:00AM 58.3163 -38.7058 65° Northeast  Level FlightAware Approximate
04:01AM 58.3747 -38.4582 66° East  Level FlightAware Approximate
04:02AM 58.4326 -38.2099 66° East  Level FlightAware Approximate
04:03AM 58.4900 -37.9607 66° East  Level FlightAware Approximate
04:04AM 58.5469 -37.7107 66° East  Level FlightAware Approximate
04:05AM 58.6034 -37.4599 67° East  Level FlightAware Approximate
04:06AM 58.6593 -37.2082 67° East  Level FlightAware Approximate
04:07AM 58.7148 -36.9558 67° East  Level FlightAware Approximate
04:08AM 58.7698 -36.7026 67° East  Level FlightAware Approximate
04:09AM 58.8243 -36.4486 67° East  Level FlightAware Approximate
04:10AM 58.8783 -36.1937 68° East  Level FlightAware Approximate
04:11AM 58.9317 -35.9381 68° East  Level FlightAware Approximate
04:12AM 58.9848 -35.6819 68° East  Level FlightAware Approximate
04:13AM 59.0375 -35.4248 68° East  Level FlightAware Approximate
04:14AM 59.0897 -35.1670 68° East  Level FlightAware Approximate
04:15AM 59.1414 -34.9085 69° East  Level FlightAware Approximate
04:16AM 59.1925 -34.6491 69° East  Level FlightAware Approximate
04:17AM 59.2432 -34.3890 69° East  Level FlightAware Approximate
04:18AM 59.2933 -34.1281 69° East  Level FlightAware Approximate
04:19AM 59.3429 -33.8664 70° East  Level FlightAware Approximate
04:20AM 59.3919 -33.6040 70° East  Level FlightAware Approximate
04:21AM 59.4405 -33.3408 70° East  Level FlightAware Approximate
04:22AM 59.4885 -33.0769 70° East  Level FlightAware Approximate
04:23AM 59.5360 -32.8122 70° East  Level FlightAware Approximate
04:24AM 59.5829 -32.5468 71° East  Level FlightAware Approximate
04:25AM 59.6293 -32.2806 71° East  Level FlightAware Approximate
04:26AM 59.6752 -32.0137 71° East  Level FlightAware Approximate
04:27AM 59.7205 -31.7461 71° East  Level FlightAware Approximate
04:28AM 59.7653 -31.4778 72° East  Level FlightAware Approximate
04:29AM 59.8095 -31.2087 72° East  Level FlightAware Approximate
04:30AM 59.8531 -30.9390 72° East  Level FlightAware Approximate
04:31AM 59.8963 -30.6685 72° East  Level FlightAware Approximate
04:32AM 59.9388 -30.3973 72° East  Level FlightAware Approximate
04:33AM 59.9808 -30.1255 73° East  Level FlightAware Approximate
04:34AM 60.0339 -29.8620 64° Northeast  Level FlightAware Approximate
04:35AM 60.0964 -29.6056 64° Northeast  Level FlightAware Approximate
04:36AM 60.1584 -29.3481 64° Northeast  Level FlightAware Approximate
04:37AM 60.2199 -29.0897 64° Northeast  Level FlightAware Approximate
04:38AM 60.2809 -28.8303 65° Northeast  Level FlightAware Approximate
04:39AM 60.3414 -28.5700 65° Northeast  Level FlightAware Approximate
04:40AM 60.4014 -28.3086 65° Northeast  Level FlightAware Approximate
04:41AM 60.4608 -28.0464 65° Northeast  Level FlightAware Approximate
04:42AM 60.5198 -27.7831 65° Northeast  Level FlightAware Approximate
04:43AM 60.5782 -27.5189 66° East  Level FlightAware Approximate
04:44AM 60.6362 -27.2539 65° Northeast  Level FlightAware Approximate
04:44AM 60.6790 -27.0380 65° Northeast 492 566 37,000  Level FlightAware
04:45AM 60.6951 -26.9892 65° Northeast  Level FlightAware Approximate
04:45AM 60.7080 -26.9090 65° Northeast 491 565 37,000  Level FlightAware
04:45AM 60.7430 -26.7460 66° East 491 565 37,000  Level FlightAware
04:46AM 60.7810 -26.5720 66° East 491 565 37,000  Level FlightAware
04:47AM 60.8300 -26.3420 66° East 490 564 37,000  Level FlightAware
04:48AM 60.8650 -26.1810 66° East 490 564 37,000  Level FlightAware
04:48AM 60.9100 -25.9660 67° East 492 566 37,000  Level FlightAware
04:49AM 60.9480 -25.7910 66° East 492 566 37,000  Level FlightAware
04:50AM 60.9870 -25.5890 68° East 494 568 37,000  Level FlightAware
04:51AM 61.0230 -25.4120 67° East 494 568 37,000  Level FlightAware
04:51AM 61.0690 -25.1830 67° East 491 565 37,000  Level FlightAware
04:52AM 61.1010 -25.0240 67° East 491 565 37,000  Level FlightAware
04:53AM 61.1390 -24.8350 67° East 490 564 37,000  Level FlightAware
04:53AM 61.1720 -24.6640 68° East 488 562 37,000 -240 Level FlightAware
04:54AM 61.2060 -24.4910 68° East 491 565 36,700 -540 Descending FlightAware
04:55AM 61.2400 -24.3150 68° East 499 574 36,300 -660 Descending FlightAware
04:55AM 61.2770 -24.1200 68° East 496 571 35,800 -840 Descending FlightAware
04:56AM 61.3120 -23.9340 69° East 496 571 35,100 -1,020 Descending FlightAware
04:57AM 61.3480 -23.7470 68° East 496 571 34,400 -1,020 Descending FlightAware
04:57AM 61.3770 -23.5880 69° East 497 572 33,800 -960 Descending FlightAware
04:58AM 61.4100 -23.4120 69° East 499 574 33,200 -660 Descending FlightAware
04:59AM 61.4390 -23.2520 69° East 500 575 33,000 -180 Descending FlightAware
05:00AM 61.4780 -23.0350 69° East 499 574 33,000  Level FlightAware
05:00AM 61.4990 -22.8640 75° East 493 567 33,000  Level FlightAware
05:01AM 61.5130 -22.6640 82° East 494 568 33,000  Level FlightAware
05:02AM 61.5270 -22.4780 81° East 496 571 33,000  Level FlightAware
05:02AM 61.5410 -22.2690 82° East 496 571 33,000  Level FlightAware
05:03AM 61.5540 -22.0720 82° East 494 568 33,000  Level FlightAware
05:04AM 61.5680 -21.8610 82° East 492 566 33,000  Level FlightAware
05:04AM 61.5800 -21.6710 82° East 490 564 33,000  Level FlightAware
05:05AM 61.5900 -21.5030 83° East 489 563 33,000  Level FlightAware
05:06AM 61.6020 -21.3150 82° East 488 562 33,000  Level FlightAware
05:06AM 61.6140 -21.1130 83° East 489 563 33,000  Level FlightAware
05:07AM 61.6250 -20.9170 83° East 490 564 33,000  Level FlightAware
05:08AM 61.6340 -20.7510 83° East 491 565 33,000  Level FlightAware
05:08AM 61.6460 -20.5520 83° East 491 565 33,000  Level FlightAware
05:09AM 61.6560 -20.3550 84° East 487 560 33,000  Level FlightAware
05:10AM 61.6660 -20.1590 84° East 484 557 33,000  Level FlightAware
05:10AM 61.6770 -19.9590 83° East 486 559 33,000  Level FlightAware
05:11AM 61.6900 -19.6820 84° East 489 563 33,000  Level FlightAware
05:12AM 61.7010 -19.4470 84° East 488 562 33,000  Level FlightAware
05:13AM 61.7100 -19.2560 84° East 487 560 33,000  Level FlightAware
05:14AM 61.7190 -19.0640 84° East 486 559 33,000  Level FlightAware
05:15AM 61.7310 -18.7840 85° East 487 560 33,000  Level FlightAware
05:15AM 61.7400 -18.5560 85° East 487 560 33,000  Level FlightAware
05:16AM 61.7470 -18.3680 85° East 484 557 33,000  Level FlightAware
05:17AM 61.7540 -18.1900 85° East 486 559 33,000  Level FlightAware
05:17AM 61.7620 -17.9710 85° East 488 562 33,000  Level FlightAware
05:18AM 61.7690 -17.7700 86° East 488 562 33,000  Level FlightAware
05:19AM 61.7750 -17.5760 86° East 488 562 33,000  Level FlightAware
05:20AM 61.7820 -17.3670 86° East 488 562 33,000  Level FlightAware
05:20AM 61.7870 -17.2030 86° East 489 563 33,000  Level FlightAware
05:21AM 61.7930 -17.0040 86° East 489 563 33,000  Level FlightAware
05:22AM 61.7990 -16.7740 87° East 489 563 33,000  Level FlightAware
05:22AM 61.8050 -16.5640 86° East 487 560 33,000  Level FlightAware
05:23AM 61.8100 -16.3920 86° East 487 560 33,000  Level FlightAware
05:24AM 61.8130 -16.1960 88° East 485 558 33,000  Level FlightAware
05:24AM 61.8180 -15.9770 87° East 486 559 33,000  Level FlightAware
05:25AM 61.8220 -15.8030 87° East 486 559 33,000  Level FlightAware
05:26AM 61.8250 -15.6150 88° East 486 559 33,000  Level FlightAware
05:26AM 61.8290 -15.3980 88° East 485 558 33,000  Level FlightAware
05:27AM 61.8320 -15.2120 88° East 484 557 33,000  Level FlightAware
05:28AM 61.8350 -15.0360 88° East 484 557 33,000  Level FlightAware
05:28AM 61.8370 -14.8470 89° East 485 558 33,000  Level FlightAware
05:29AM 61.8400 -14.6450 88° East 485 558 33,000  Level FlightAware
05:30AM 61.8420 -14.4610 89° East 485 558 33,000  Level FlightAware
05:31AM 61.8440 -14.2510 89° East 486 559 33,000  Level FlightAware
05:31AM 61.8450 -14.0630 89° East 486 559 33,000  Level FlightAware
05:32AM 61.8460 -13.8450 89° East 487 560 33,000  Level FlightAware
05:33AM 61.8470 -13.6540 89° East 487 560 33,000  Level FlightAware
05:33AM 61.8480 -13.4250 89° East 487 560 33,000  Level FlightAware
05:34AM 61.8480 -13.2370 90° East 486 559 33,000  Level FlightAware
05:35AM 61.8480 -13.0440 90° East 485 558 33,000  Level FlightAware
05:35AM 61.8480 -12.8570 90° East 485 558 33,000  Level FlightAware
05:36AM 61.8480 -12.6460 90° East 486 559 33,000  Level FlightAware
05:37AM 61.8470 -12.5010 91° East 486 559 33,000  Level FlightAware
05:37AM 61.8460 -12.2890 90° East 486 559 33,000  Level FlightAware
05:38AM 61.8450 -12.0480 90° East 487 560 33,000  Level FlightAware
05:39AM 61.8450 -11.9020 90° East 487 560 33,000  Level FlightAware
05:41AM 61.8370 -11.3660 92° East 489 563 33,000  Level FlightAware
05:41AM 61.8360 -11.2290 91° East 490 564 33,000  Level FlightAware
05:42AM 61.8350 -11.0330 91° East 490 564 33,000  Level FlightAware
05:43AM 61.8290 -10.7700 93° East 493 567 33,000  Level FlightAware
05:43AM 61.8250 -10.5840 93° East 494 568 33,000  Level FlightAware
05:44AM 61.8210 -10.3750 92° East 497 572 33,000  Level FlightAware
05:45AM 61.8170 -10.1590 92° East 500 575 33,000  Level FlightAware
05:46AM 61.8140 -9.9700 92° East 500 575 33,000  Level FlightAware
05:46AM 61.8080 -9.7870 94° East 508 585 33,000  Level FlightAware
05:47AM 61.8040 -9.5860 92° East 510 587 33,000  Level FlightAware
05:47AM 61.8020 -9.4330 92° East 510 587 33,000  Level FlightAware
05:48AM 61.7980 -9.2290 92° East 510 587 33,000  Level FlightAware
05:49AM 61.7960 -9.0770 92° East 510 587 33,000  Level FlightAware
05:50AM 61.7930 -8.8730 92° East 510 587 33,000  Level FlightAware
05:50AM 61.7900 -8.7200 92° East 510 587 33,000  Level FlightAware
05:51AM 61.7870 -8.5680 92° East 510 587 33,000  Level FlightAware
05:51AM 61.7850 -8.4110 91° East 510 587 33,000  Level FlightAware
05:52AM 61.7520 -7.9680 99° East 510 587 33,000  Level FlightAware
05:53AM 61.7460 -7.8090 94° East 510 587 33,000  Level FlightAware
05:53AM 61.7380 -7.5910 94° East 511 588 33,000  Level FlightAware
05:54AM 61.7290 -7.3910 95° East 511 588 33,000  Level FlightAware
05:55AM 61.7200 -7.1760 95° East 512 589 33,000  Level FlightAware
05:56AM 61.7120 -6.9770 95° East 511 588 33,000  Level FlightAware
05:56AM 61.7030 -6.7970 96° East 511 588 33,000  Level FlightAware
05:57AM 61.6940 -6.6000 95° East 511 588 33,000  Level FlightAware
05:57AM 61.6870 -6.4450 95° East 509 586 33,000  Level FlightAware
05:58AM 61.6770 -6.2450 96° East 507 583 33,000  Level FlightAware
05:59AM 61.6660 -6.0310 96° East 505 581 33,000  Level FlightAware
05:59AM 61.6560 -5.8380 96° East 505 581 33,000  Level FlightAware
06:00AM 61.6450 -5.6430 97° East 505 581 33,000  Level FlightAware
06:01AM 61.6330 -5.4170 96° East 504 580 33,000  Level FlightAware
06:01AM 61.6220 -5.2280 97° East 504 580 33,000  Level FlightAware
06:02AM 61.6090 -5.0120 97° East 505 581 33,000  Level FlightAware
06:03AM 61.5970 -4.8160 97° East 508 585 33,000  Level FlightAware
06:04AM 61.5850 -4.6100 97° East 509 586 33,000  Level FlightAware
06:04AM 61.5720 -4.4060 98° East 510 587 33,000  Level FlightAware
06:05AM 61.5600 -4.2300 98° East 509 586 33,000  Level FlightAware
06:06AM 61.5470 -4.0340 98° East 509 586 33,000  Level FlightAware
06:06AM 61.5380 -3.8990 98° East 510 587 33,000  Level FlightAware
06:07AM 61.5250 -3.7020 98° East 510 587 33,000  Level FlightAware
06:07AM 61.5110 -3.5070 98° East 509 586 33,000  Level FlightAware
06:08AM 61.4970 -3.3190 99° East 508 585 33,000  Level FlightAware
06:09AM 61.4830 -3.1210 98° East 510 587 33,000  Level FlightAware
06:10AM 61.4630 -2.8610 99° East 510 587 33,000  Level FlightAware
06:10AM 61.4480 -2.6660 99° East 510 587 33,000  Level FlightAware
06:13AM 61.3893 -2.0075 100° East  Level FlightAware Approximate
06:13AM 61.3870 -1.9020 100° East 517 595 33,000  Level FlightAware
06:14AM 61.3750 -1.7560 100° East 518 596 33,000  Level FlightAware
06:14AM 61.3520 -1.4900 100° East 520 598 33,000  Level FlightAware
06:15AM 61.3340 -1.2810 100° East 521 600 33,000  Level FlightAware
06:16AM 61.3160 -1.0830 101° East 520 598 33,000  Level FlightAware
06:16AM 61.2970 -0.8700 100° East 521 600 33,000  Level FlightAware
06:17AM 61.2750 -0.6360 101° East 520 598 33,000  Level FlightAware
06:18AM 61.2560 -0.4280 101° East 521 600 33,000  Level FlightAware
06:19AM 61.2360 -0.2230 101° East 524 603 33,000  Level FlightAware
06:19AM 61.2140 -0.0050 102° East 525 604 33,000  Level FlightAware
06:21AM 61.1620 0.3330 108° East 513 590 33,000  Level FlightAware
06:21AM 61.1290 0.5140 111° Southeast 513 590 33,000 60 Level FlightAware
06:22AM 61.0950 0.7000 111° Southeast 515 593 33,100 540 Climbing FlightAware
06:22AM 61.0650 0.8640 111° Southeast 518 596 33,700 1,140 Climbing FlightAware
06:23AM 61.0300 1.0560 111° Southeast 516 594 34,600 900 Climbing FlightAware
06:24AM 60.9970 1.2380 110° East 510 587 35,000 300 Climbing FlightAware
06:24AM 60.9670 1.3990 111° Southeast 509 586 35,000  Level FlightAware
06:25AM 60.9330 1.5790 111° Southeast 509 586 35,000  Level FlightAware
06:26AM 60.8950 1.7810 111° Southeast 509 586 35,000  Level FlightAware
06:26AM 60.8600 1.9620 112° Southeast 509 586 35,000  Level FlightAware
06:27AM 60.8200 2.1710 111° Southeast 513 590 35,000  Level FlightAware
06:28AM 60.7870 2.3410 112° Southeast 513 590 35,000  Level FlightAware
06:29AM 60.7510 2.5210 112° Southeast 511 588 35,000  Level FlightAware
06:29AM 60.7120 2.7200 112° Southeast 512 589 35,000  Level FlightAware
06:30AM 60.6780 2.8870 113° Southeast 513 590 35,000  Level FlightAware
06:31AM 60.6480 3.0360 112° Southeast 513 590 35,000  Level FlightAware
06:31AM 60.6020 3.2660 112° Southeast 512 589 35,000  Level FlightAware
06:32AM 60.5650 3.4420 113° Southeast 512 589 35,000  Level FlightAware
06:33AM 60.5300 3.6110 113° Southeast 511 588 35,000  Level FlightAware
06:33AM 60.4880 3.8120 113° Southeast 513 590 35,000  Level FlightAware
06:34AM 60.4520 3.9820 113° Southeast 514 592 35,000  Level FlightAware
06:35AM 60.4120 4.1680 113° Southeast 514 592 35,000  Level FlightAware
06:35AM 60.3770 4.3320 113° Southeast 514 592 35,000  Level FlightAware
06:36AM 60.3370 4.5180 113° Southeast 513 590 35,000  Level FlightAware
06:37AM 60.3010 4.6830 114° Southeast 513 590 35,000  Level FlightAware
06:37AM 60.2620 4.8590 114° Southeast 513 590 35,000  Level FlightAware
06:38AM 60.2200 5.0480 114° Southeast 515 593 35,000  Level FlightAware
06:39AM 60.1810 5.2210 114° Southeast 516 594 35,000  Level FlightAware
06:39AM 60.1460 5.3780 114° Southeast 516 594 35,000  Level FlightAware
06:40AM 60.1060 5.5530 115° Southeast 515 593 35,000  Level FlightAware
06:41AM 60.0700 5.7090 115° Southeast 515 593 35,000  Level FlightAware
06:41AM 60.0260 5.8990 115° Southeast 517 595 35,000  Level FlightAware
06:42AM 59.9860 6.0700 115° Southeast 518 596 35,000  Level FlightAware
06:43AM 59.9450 6.2440 115° Southeast 519 597 35,000  Level FlightAware
06:43AM 59.9000 6.4350 115° Southeast 520 598 35,000  Level FlightAware
06:44AM 59.8550 6.6240 115° Southeast 521 600 35,000  Level FlightAware
06:45AM 59.8110 6.8030 116° Southeast 521 600 35,000  Level FlightAware
06:46AM 59.7690 6.9760 116° Southeast 521 600 35,000  Level FlightAware
06:46AM 59.7310 7.1310 116° Southeast 520 598 35,000  Level FlightAware
06:47AM 59.6890 7.3010 116° Southeast 520 598 35,000  Level FlightAware
06:48AM 59.6400 7.4980 116° Southeast 519 597 35,000  Level FlightAware
06:48AM 59.5990 7.6640 116° Southeast 520 598 35,000  Level FlightAware
06:49AM 59.5510 7.8520 117° Southeast 520 598 35,000  Level FlightAware
06:50AM 59.5150 7.9940 117° Southeast 519 597 35,000  Level FlightAware
06:50AM 59.4610 8.2040 117° Southeast 519 597 35,000  Level FlightAware
06:51AM 59.4100 8.4000 117° Southeast 519 597 35,000  Level FlightAware
06:52AM 59.3690 8.5570 117° Southeast 519 597 35,000  Level FlightAware
06:53AM 59.3160 8.7580 117° Southeast 520 598 35,000  Level FlightAware
06:53AM 59.2820 8.8880 117° Southeast 520 598 35,000  Level FlightAware
06:54AM 59.2320 9.0730 118° Southeast 523 602 35,000  Level FlightAware
06:55AM 59.1820 9.2570 118° Southeast 525 604 35,000  Level FlightAware
06:55AM 59.1580 9.3460 118° Southeast 526 605 35,000  Level FlightAware
06:56AM 59.1070 9.5320 118° Southeast 530 610 35,000  Level FlightAware
06:56AM 59.0560 9.7200 118° Southeast 529 609 35,000  Level FlightAware
06:57AM 59.0080 9.8940 118° Southeast 529 609 35,000  Level FlightAware
06:58AM 58.9630 10.0520 119° Southeast 528 608 35,000  Level FlightAware
06:59AM 58.9110 10.2390 118° Southeast 528 608 35,000  Level FlightAware
06:59AM 58.8570 10.3930 124° Southeast 528 608 35,000  Level FlightAware
07:00AM 58.7870 10.5450 132° Southeast 528 608 35,000  Level FlightAware
07:01AM 58.7150 10.6670 139° Southeast 528 608 35,000  Level FlightAware
07:01AM 58.6190 10.7900 146° Southeast 525 604 35,000  Level FlightAware
07:02AM 58.5410 10.8840 148° Southeast 524 603 35,000  Level FlightAware
07:03AM 58.4530 10.9880 148° Southeast 523 602 35,000  Level FlightAware
07:03AM 58.3700 11.0780 150° Southeast 522 601 35,000  Level FlightAware
07:04AM 58.2740 11.1780 151° Southeast 520 598 35,000  Level FlightAware
07:05AM 58.1980 11.2330 159° South 515 593 35,000  Level FlightAware
07:05AM 58.1080 11.2940 160° South 513 590 35,000  Level FlightAware
07:06AM 58.0220 11.3540 160° South 513 590 35,000  Level FlightAware
07:07AM 57.9210 11.4240 160° South 514 592 35,000  Level FlightAware
07:08AM 57.8200 11.4940 160° South 516 594 35,000  Level FlightAware
07:08AM 57.7290 11.5560 160° South 516 594 35,000 -540 Level FlightAware
07:09AM 57.6300 11.6230 160° South 518 596 34,300 -1,020 Descending FlightAware
07:10AM 57.5410 11.6830 160° South 521 600 33,600 -1,020 Descending FlightAware
07:10AM 57.4420 11.7500 160° South 523 602 32,900 -1,320 Descending FlightAware
07:12AM 57.2620 11.8700 160° South 526 605 30,700 -1,980 Descending FlightAware
07:13AM 57.1650 11.9340 160° South 519 597 28,600 -3,120 Descending FlightAware
07:13AM 57.0540 12.0070 160° South 502 578 26,600 -2,760 Descending FlightAware
07:14AM 56.9690 12.0630 160° South 487 560 25,000 -2,400 Descending FlightAware
07:15AM 56.8750 12.1240 160° South 474 545 23,300 -2,280 Descending FlightAware
07:16AM 56.7640 12.1960 160° South 459 528 21,200 -2,280 Descending FlightAware
07:16AM 56.6990 12.2380 160° South 450 518 20,000 -2,100 Descending FlightAware
07:17AM 56.6310 12.2810 161° South 442 509 18,800 -2,100 Descending FlightAware
07:17AM 56.5350 12.3430 160° South 430 495 17,100 -2,040 Descending FlightAware
07:18AM 56.4600 12.3900 161° South 421 484 15,800 -1,860 Descending FlightAware
07:19AM 56.3810 12.4400 161° South 412 474 14,500 -1,680 Descending FlightAware
07:19AM 56.3280 12.4650 165° South 408 470 13,800 -1,320 Descending FlightAware
07:20AM 56.2710 12.4510 188° South 405 466 13,200 -1,320 Descending FlightAware
07:21AM 56.1970 12.4310 189° South 387 445 12,200 -1,200 Descending FlightAware
07:21AM 56.1070 12.4060 189° South 389 448 11,400 -1,020 Descending FlightAware
07:22AM 55.9910 12.3740 189° South 377 434 10,300 -1,200 Descending FlightAware
07:23AM 55.9490 12.3630 188° South 374 430 9,600 -1,800 Descending FlightAware
07:23AM 55.8950 12.3480 189° South 376 433 8,700 -1,860 Descending FlightAware
07:24AM 55.8790 12.3440 188° South 372 428 8,400 -1,920 Descending FlightAware
07:24AM 55.8280 12.3300 189° South 360 414 7,400 -1,980 Descending FlightAware
07:25AM 55.7700 12.3140 189° South 357 411 6,300 -2,040 Descending FlightAware
07:25AM 55.7180 12.3080 184° South 357 411 5,200 -2,880 Descending FlightAware
07:26AM 55.6790 12.3180 172° South 342 394 3,700 -2,640 Descending FlightAware
07:26AM 55.6350 12.3320 170° South 298 343 2,800 -900 Descending FlightAware
07:27AM 55.5970 12.3450 169° South 250 288 2,800 -240 Level FlightAware
07:27AM 55.5760 12.3530 168° South 231 266 2,600 -1,080 Descending FlightAware
07:27AM 55.5490 12.3640 167° South 241 277 2,000 -1,080 Descending FlightAware
07:28AM 55.5340 12.3800 149° Southeast 227 261 1,900 -300 Descending FlightAware
07:28AM 55.5130 12.4180 134° Southeast 205 236 1,800 -180 Descending FlightAware
07:28AM 55.5070 12.4400 116° Southeast 209 241 1,800 -240 Level FlightAware
07:29AM 55.5300 12.5120 61° Northeast 164 189 1,500 -600 Descending FlightAware
07:30AM 55.5450 12.5320 37° Northeast 169 194 1,000 -1,080 Descending FlightAware
07:30AM 55.5600 12.5530 38° Northeast 153 176 600 -780 Descending FlightAware
07:31AM 55.5750 12.5770 42° Northeast 151 174 300 -720 Descending FlightAware
07:31AM 55.5830 12.5890 40° Northeast 152 175 100 -780 Descending FlightAware